Latest Coastal Weather Observations for Cape Sorell

IDT60701

Issued at 1:42 am EST Friday 22 September 2017 (issued every 10 minutes, with the page automatically refreshed every 10 minutes)

About coastal observations | Map of coastal stations | Coastal observations for TAS | Marine services | Other Formats
Station Details ID: 097000 Name: CAPE SORELL Lat: -42.20 Lon: 145.17 Height: 19.3 m
Data from the previous 72 hours. | See also: Recent months at Cape Sorell
Date/Time
EST
Temp
°C
Wind Pressure Rain since
9am
mm
Weather Cloud Vis
km
Sea
Height
m
Swell
Dir  Spd
kts
Gust
kts
hPa Trend Height
m
Period
s
Dir
22/01:30am 10.9 NW 12 15 1007.9 - 1.2 - - - - - - -
22/01:00am 10.9 NW 12 15 1008.0 - 1.2 - - - - - - -
22/12:30am 10.6 NW 11 15 1008.0 - 1.2 - - - - - - -
22/12:00am 10.5 NW 12 17 1007.9 - 1.0 - - - - - - -
 
Date/Time
EST
Temp
°C
Wind Pressure Rain since
9am
mm
Weather Cloud Vis
km
Sea
Height
m
Swell
Dir  Spd
kts
Gust
kts
hPa Trend Height
m
Period
s
Dir
21/11:30pm 10.4 NW 12 17 1007.9 - 1.0 - - - - - - -
21/11:00pm 10.6 NW 13 16 1008.0 - 1.0 - - - - - - -
21/10:30pm 10.9 NNW 13 23 1008.0 - 1.0 - - - - - - -
21/10:00pm 10.9 NNW 12 15 1008.0 - 0.4 - - - - - - -
21/09:30pm 10.8 NW 12 15 1008.0 - 0.4 - - - - - - -
21/09:00pm 10.7 NW 10 15 1007.8 - 0.4 Recent precip. - - - - - -
21/08:30pm 11.3 NW 10 14 1007.7 - 0.2 - - - - - - -
21/08:00pm 10.9 NW 10 16 1007.7 - 0.2 - - - - - - -
21/07:30pm 11.1 NW 13 17 1007.3 - 0.2 - - - - - - -
21/07:00pm 11.2 WNW 11 14 1006.8 - 0.2 - - - - - - -
21/06:30pm 11.2 WNW 13 16 1006.3 - 0.2 - - - - - - -
21/06:00pm 11.3 WNW 12 16 1005.8 - 0.2 - - - - - - -
21/05:30pm 11.5 WNW 13 17 1005.4 - 0.2 - - - - - - -
21/05:00pm 11.8 W 11 17 1004.8 - 0.2 - - - - - - -
21/04:30pm 12.2 W 14 18 1004.4 - 0.2 - - - - - - -
21/04:00pm 11.8 W 15 20 1003.8 - 0.2 - - - - - - -
21/03:30pm 11.9 WSW 16 20 1003.4 - 0.2 - - - - - - -
21/03:00pm 13.0 NW 16 22 1003.1 - 0.2 Rain - - - - - -
21/02:30pm 13.8 NNW 18 25 1002.7 - 0.0 - - - - - - -
21/02:13pm 14.2 NNW 19 31 1002.7 - 0.0 - - - - - - -
21/02:00pm 14.1 NNW 18 25 1002.6 - 0.0 - - - - - - -
21/01:30pm 14.3 N 25 30 1002.5 - 0.0 - - - - - - -
21/01:00pm 15.3 NNW 25 31 1002.6 - 0.0 - - - - - - -
21/12:34pm 15.6 NNW 24 34 1002.6 - 0.0 - - - - - - -
21/12:30pm 15.5 NNW 23 31 1002.6 - 0.0 - - - - - - -
21/12:00pm 15.9 N 26 31 1002.2 - 0.0 - - - - - - -
21/11:30am 15.5 N 24 30 1002.3 - 0.0 - - - - - - -
21/11:00am 14.6 N 23 32 1002.6 - 0.0 - - - - - - -
21/10:30am 14.1 NNE 23 27 1002.3 - 0.0 - - - - - - -
21/10:00am 13.0 NNE 23 28 1003.0 - 0.0 - - - - - - -
21/09:30am 12.6 NNE 23 27 1003.9 - 0.0 - - - - - - -
21/09:00am 12.5 NNE 25 30 1004.5 - 2.0 Recent precip. - - - - - -
21/08:30am 12.4 NNE 24 28 1004.9 - 1.8 - - - - - - -
21/08:00am 12.1 NNE 25 30 1005.1 - 1.8 - - - - - - -
21/07:30am 13.2 N 23 29 1005.7 - 1.8 - - - - - - -
21/07:00am 12.6 NNE 25 29 1005.5 - 1.6 - - - - - - -
21/06:30am 12.5 NNE 25 31 1004.7 - 1.6 - - - - - - -
21/06:00am 12.6 NNE 23 28 1004.9 - 1.6 - - - - - - -
21/05:30am 12.5 NNE 25 29 1005.3 - 1.6 - - - - - - -
21/05:00am 12.4 NNE 22 26 1005.6 - 1.6 - - - - - - -
21/04:30am 12.2 NNE 17 21 1005.8 - 1.6 - - - - - - -
21/04:00am 12.2 NNE 22 26 1006.1 - 1.6 - - - - - - -
21/03:30am 12.0 NNE 23 26 1006.5 - 1.6 - - - - - - -
21/03:00am 12.1 NNE 23 27 1006.9 - 1.6 - - - - - - -
21/02:30am 12.3 NNE 21 26 1007.6 - 1.6 - - - - - - -
21/02:00am 11.8 NNE 19 22 1008.7 - 1.6 - - - - - - -
21/01:30am 12.6 N 21 24 1008.7 - 1.6 - - - - - - -
21/01:00am 12.0 N 14 16 1010.0 - 1.6 - - - - - - -
21/12:30am 11.4 NNE 12 14 1009.9 - 1.6 - - - - - - -
21/12:00am 11.1 NE 13 16 1009.2 - 1.6 - - - - - - -
 
Date/Time
EST
Temp
°C
Wind Pressure Rain since
9am
mm
Weather Cloud Vis
km
Sea
Height
m
Swell
Dir  Spd
kts
Gust
kts
hPa Trend Height
m
Period
s
Dir
20/11:30pm 10.9 NE 18 23 1009.6 - 1.6 - - - - - - -
20/11:00pm 11.4 NNE 19 23 1011.4 - 1.6 - - - - - - -
20/10:30pm 11.3 N 20 24 1012.0 - 1.6 - - - - - - -
20/10:00pm 11.8 N 21 28 1012.5 - 1.2 - - - - - - -
20/09:30pm 11.3 N 20 24 1011.8 - 1.2 - - - - - - -
20/09:00pm 11.5 NNW 17 21 1012.8 - 1.2 - - - - - - -
20/08:30pm 11.7 N 18 23 1012.3 - 1.2 - - - - - - -
20/08:00pm 11.7 N 18 23 1012.1 - 1.2 - - - - - - -
20/07:30pm 11.3 NNE 15 17 1011.9 - 1.2 - - - - - - -
20/07:00pm 11.3 N 18 24 1011.6 - 1.2 - - - - - - -
20/06:30pm 11.1 N 17 21 1012.0 - 1.2 - - - - - - -
20/06:00pm 10.9 N 18 21 1011.9 - 1.2 Recent precip. - - - - - -
20/05:30pm 11.0 N 19 23 1012.4 - 1.2 - - - - - - -
20/05:00pm 11.4 NNW 19 25 1012.9 - 0.4 - - - - - - -
20/04:30pm 11.6 NNW 17 27 1013.2 - 0.4 - - - - - - -
20/04:00pm 11.8 N 22 26 1011.8 - 0.4 - - - - - - -
20/03:30pm 11.9 N 20 24 1012.5 - 0.4 - - - - - - -
20/03:00pm 11.6 N 19 23 1013.1 - 0.4 Recent precip. - - - - - -
20/02:30pm 11.6 N 16 19 1013.6 - 0.4 - - - - - - -
20/02:00pm 11.8 NNW 15 20 1013.5 - 0.2 - - - - - - -
20/01:30pm 11.8 N 16 19 1013.3 - 0.2 - - - - - - -
20/01:00pm 11.0 N 19 25 1013.6 - 0.2 - - - - - - -
20/12:30pm 10.8 N 16 20 1014.1 - 0.2 - - - - - - -
20/12:00pm 10.7 N 19 23 1014.8 - 0.0 - - - - - - -
20/11:30am 10.9 N 17 21 1015.5 - 0.0 - - - - - - -
20/11:00am 11.1 N 17 22 1016.0 - 0.0 - - - - - - -
20/10:30am 11.2 N 17 22 1016.3 - 0.0 - - - - - - -
20/10:00am 10.4 N 17 21 1016.2 - 0.0 - - - - - - -
20/09:30am 10.4 NNE 16 18 1016.1 - 0.0 - - - - - - -
20/09:00am 10.1 NNE 15 18 1016.2 - 0.8 - - - - - - -
20/08:30am 9.6 NNE 15 19 1016.3 - 0.8 - - - - - - -
20/08:00am 9.3 NNE 16 18 1016.5 - 0.8 - - - - - - -
20/07:30am 8.8 NNE 15 18 1016.6 - 0.8 - - - - - - -
20/07:00am 8.5 NNE 14 17 1016.6 - 0.8 - - - - - - -
20/06:30am 8.3 NNE 14 15 1016.7 - 0.8 - - - - - - -
20/06:00am 8.4 NNE 13 15 1016.7 - 0.8 - - - - - - -
20/05:30am 8.2 NNE 13 16 1016.7 - 0.8 - - - - - - -
20/05:00am 8.0 NNE 13 15 1016.7 - 0.8 - - - - - - -
20/04:30am 8.2 NNE 12 14 1016.7 - 0.8 - - - - - - -
20/04:00am 8.2 NNE 12 14 1016.7 - 0.8 - - - - - - -
20/03:30am 7.9 NNE 11 13 1016.9 - 0.8 - - - - - - -
20/03:00am 8.0 NNE 11 13 1017.2 - 0.8 - - - - - - -
20/02:30am 8.4 NNE 9 12 1017.4 - 0.8 - - - - - - -
20/02:00am 8.3 NW 7 10 1017.7 - 0.8 - - - - - - -
20/01:30am 8.4 NNW 8 11 1017.9 - 0.8 - - - - - - -
20/01:00am 8.2 NNW 9 12 1018.1 - 0.8 - - - - - - -
20/12:30am 8.7 WNW 7 11 1018.4 - 0.8 - - - - - - -
20/12:00am 8.8 WSW 4 6 1018.4 - 0.6 - - - - - - -
 
Date/Time
EST
Temp
°C
Wind Pressure Rain since
9am
mm
Weather Cloud Vis
km
Sea
Height
m
Swell
Dir  Spd
kts
Gust
kts
hPa Trend Height
m
Period
s
Dir
19/11:30pm 8.4 WSW 7 9 1018.6 - 0.6 - - - - - - -
19/11:00pm 8.7 WSW 8 10 1018.6 - 0.6 - - - - - - -
19/10:30pm 8.9 WSW 7 10 1018.8 - 0.6 - - - - - - -
19/10:00pm 8.9 WSW 8 10 1018.9 - 0.6 - - - - - - -
19/09:30pm 8.6 WSW 10 12 1018.7 - 0.6 - - - - - - -
19/09:00pm 8.4 W 9 11 1018.6 - 0.6 - - - - - - -
19/08:30pm 8.6 W 13 17 1018.5 - 0.6 - - - - - - -
19/08:00pm 9.0 WSW 12 15 1018.2 - 0.6 - - - - - - -
19/07:30pm 8.5 W 9 12 1018.0 - 0.6 - - - - - - -
19/07:00pm 8.6 WSW 12 15 1017.7 - 0.6 - - - - - - -
19/06:30pm 8.3 WSW 10 14 1017.4 - 0.6 - - - - - - -
19/06:00pm 8.2 WSW 13 20 1017.2 - 0.6 Rain - - - - - -
19/05:30pm 9.1 SW 13 17 1016.9 - 0.4 - - - - - - -
19/05:00pm 9.2 SW 15 19 1016.6 - 0.4 - - - - - - -
19/04:30pm 10.1 SW 13 17 1016.2 - 0.4 - - - - - - -
19/04:00pm 9.3 WSW 12 17 1016.0 - 0.4 - - - - - - -
19/03:30pm 10.8 SW 16 19 1015.8 - 0.4 - - - - - - -
19/03:00pm 10.6 SW 20 23 1015.4 - 0.4 - - - - - - -
19/02:30pm 10.5 SW 20 23 1015.2 - 0.4 - - - - - - -
19/02:00pm 10.3 SW 21 24 1014.8 - 0.4 - - - - - - -
19/01:30pm 10.7 SW 19 24 1014.6 - 0.4 - - - - - - -
19/01:00pm 9.6 SW 23 27 1014.1 - 0.4 - - - - - - -
19/12:30pm 10.1 SW 22 32 1013.7 - 0.2 - - - - - - -
19/12:29pm 10.5 SW 21 32 1014.0 - 0.2 - - - - - - -
19/12:00pm 9.7 SW 19 25 1013.8 - 0.2 - - - - - - -
19/11:46am 8.4 SW 22 33 1014.1 - 0.2 - - - - - - -
19/11:30am 10.6 SW 20 24 1013.8 - 0.2 - - - - - - -
19/11:00am 9.1 SW 23 26 1013.4 - 0.2 - - - - - - -
19/10:30am 7.3 SW 15 18 1013.4 - 0.2 - - - - - - -
19/10:12am 6.7 SW 32 43 1013.2 - 0.2 - - - - - - -
19/10:02am 8.6 SW 23 42 1011.8 - 0.0 - - - - - - -
19/10:00am 10.0 SW 20 33 1012.8 - 0.0 - - - - - - -
19/09:30am 8.9 SW 21 25 1012.4 - 0.0 - - - - - - -
19/09:00am 8.6 SW 27 35 1011.6 - 28.0 - - - - - - -
19/08:32am 8.4 SW 27 37 1010.9 - 28.0 - - - - - - -
19/08:30am 9.0 SW 25 34 1011.0 - 28.0 - - - - - - -
19/08:29am 9.2 SW 24 33 1011.3 - 28.0 - - - - - - -
19/08:11am 8.4 SW 25 34 1011.2 - 28.0 - - - - - - -
19/08:07am 8.4 SW 30 40 1010.9 - 28.0 - - - - - - -
19/08:00am 8.1 SW 34 40 1010.4 - 28.0 - - - - - - -
19/07:54am 8.7 SW 30 39 1010.4 - 28.0 - - - - - - -
19/07:30am 8.4 SW 21 26 1010.2 - 28.0 - - - - - - -
19/07:09am 7.4 SW 31 39 1009.9 - 28.0 - - - - - - -
19/07:00am 8.0 SW 31 40 1009.0 - 28.0 - - - - - - -
19/06:58am 8.6 SW 29 40 1008.8 - 28.0 - - - - - - -
19/06:55am 8.9 SW 25 37 1009.0 - 28.0 - - - - - - -
19/06:30am 8.2 SSW 30 37 1008.7 - 28.0 - - - - - - -
19/06:00am 8.7 SW 31 36 1007.6 - 28.0 - - - - - - -
19/05:30am 8.3 SW 34 40 1006.6 - 28.0 - - - - - - -
19/05:00am 8.3 SW 32 43 1005.3 - 28.0 - - - - - - -
19/04:31am 8.3 SSW 31 42 1005.6 - 27.8 - - - - - - -
19/04:30am 8.3 SW 32 42 1005.5 - 27.8 - - - - - - -
19/04:21am 8.8 SW 30 42 1004.7 - 27.8 - - - - - - -
19/04:00am 8.4 SW 29 37 1004.2 - 27.8 - - - - - - -
19/03:30am 8.8 SW 29 34 1003.6 - 27.8 - - - - - - -
19/03:00am 8.8 SW 32 38 1002.6 - 27.8 - - - - - - -
19/02:30am 8.9 SW 33 41 1001.1 - 27.8 - - - - - - -
19/02:27am 9.0 SW 32 41 1000.8 - 27.8 - - - - - - -
19/02:10am 9.6 SW 24 34 1000.5 - 27.8 - - - - - - -
19/02:00am 9.7 SW 20 25 1000.6 - 27.8 - - - - - - -
19/01:52am 9.8 SW 20 23 1000.5 - 27.8 - - - - - - -

Other Formats:

Comma delimited format used in spreadsheet applications
http://www.bom.gov.au/fwo/IDT60701/IDT60701.94974.axf

JavaScript Object Notation format (JSON) in row-major order
http://www.bom.gov.au/fwo/IDT60701/IDT60701.94974.json